createdAt,value
2022-11-25T00:03:01.606Z,8.37
2022-11-25T00:13:23.090Z,8.00
2022-11-25T00:23:44.726Z,7.50
2022-11-25T00:34:07.294Z,7.30
2022-11-25T00:44:40.472Z,6.78
2022-11-25T00:55:03.480Z,6.15
2022-11-25T01:05:25.003Z,5.45
2022-11-25T01:15:46.486Z,5.57
2022-11-25T01:26:11.331Z,4.47
2022-11-25T01:36:33.450Z,4.32
2022-11-25T01:57:28.338Z,4.18
2022-11-25T02:07:53.112Z,3.83
2022-11-25T02:18:14.987Z,3.47
2022-11-25T02:28:37.238Z,3.00
2022-11-25T02:39:01.525Z,2.85
2022-11-25T02:49:23.000Z,3.30
2022-11-25T02:59:44.456Z,2.73
2022-11-25T03:10:06.347Z,2.77
2022-11-25T03:20:27.832Z,2.75
2022-11-25T03:30:49.295Z,2.63
2022-11-25T03:41:10.746Z,2.73
2022-11-25T03:51:32.271Z,2.83
2022-11-25T04:01:53.849Z,2.97
2022-11-25T04:12:34.028Z,2.57
2022-11-25T04:22:55.498Z,2.65
2022-11-25T04:33:16.959Z,2.80
2022-11-25T04:43:38.428Z,2.53
2022-11-25T04:53:59.878Z,2.40
2022-11-25T05:04:21.336Z,2.40
2022-11-25T05:14:43.039Z,2.53
2022-11-25T05:25:07.858Z,2.27
2022-11-25T05:35:29.310Z,2.35
2022-11-25T05:45:50.846Z,2.30
2022-11-25T05:56:12.502Z,2.50
2022-11-25T06:06:34.138Z,2.83
2022-11-25T06:16:55.631Z,2.73
2022-11-25T06:27:17.114Z,3.00
2022-11-25T06:37:39.049Z,2.60
2022-11-25T06:48:00.533Z,2.60
2022-11-25T06:58:35.405Z,2.70
2022-11-25T07:08:57.949Z,2.67
2022-11-25T07:19:19.637Z,2.72
2022-11-25T07:40:22.617Z,2.90
2022-11-25T07:50:44.285Z,2.93
2022-11-25T08:01:07.500Z,3.47
2022-11-25T08:11:31.236Z,3.65
2022-11-25T08:21:52.698Z,3.78
2022-11-25T08:32:14.257Z,3.70
2022-11-25T08:42:35.814Z,3.63
2022-11-25T08:52:57.633Z,3.73
2022-11-25T09:03:19.193Z,3.70
2022-11-25T09:13:40.933Z,3.77
2022-11-25T09:24:02.755Z,3.92
2022-11-25T09:34:24.431Z,3.28
2022-11-25T09:45:16.705Z,3.83
2022-11-25T09:55:45.215Z,3.70
2022-11-25T10:06:19.073Z,4.00
2022-11-25T10:17:10.179Z,3.88
2022-11-25T10:27:43.787Z,4.27
2022-11-25T10:38:17.410Z,3.80
2022-11-25T10:49:09.695Z,4.30
2022-11-25T10:59:39.600Z,4.07
2022-11-25T11:10:22.600Z,5.95
2022-11-25T11:20:50.297Z,5.63
2022-11-25T11:31:20.763Z,5.70
2022-11-25T11:42:27.538Z,6.30
2022-11-25T11:53:05.986Z,5.95
2022-11-25T12:03:29.509Z,5.25
2022-11-25T12:14:10.097Z,5.93
2022-11-25T12:24:49.429Z,5.50
2022-11-25T12:35:10.813Z,6.13
2022-11-25T12:45:33.415Z,5.23
2022-11-25T12:55:59.471Z,4.93
2022-11-25T13:06:39.457Z,4.88
2022-11-25T13:17:01.611Z,5.60
2022-11-25T13:27:53.552Z,4.88
2022-11-25T13:48:51.820Z,3.92
2022-11-25T13:59:13.891Z,4.17
2022-11-25T14:10:07.576Z,3.28
2022-11-25T14:20:47.828Z,3.67
2022-11-25T14:31:22.531Z,3.28
2022-11-25T14:41:53.080Z,2.83
2022-11-25T14:52:22.215Z,2.35
2022-11-25T15:03:02.007Z,2.90
2022-11-25T15:13:29.706Z,2.88
2022-11-25T15:23:51.328Z,3.42
2022-11-25T15:34:14.623Z,2.60
2022-11-25T15:44:44.845Z,3.67
2022-11-25T15:55:31.556Z,2.70
2022-11-25T16:05:57.611Z,2.70
2022-11-25T16:16:29.932Z,3.22
2022-11-25T16:27:20.696Z,3.35
2022-11-25T16:48:24.555Z,3.17
2022-11-25T16:58:46.126Z,4.05
2022-11-25T17:09:08.419Z,3.77
2022-11-25T17:19:30.338Z,4.32
2022-11-25T17:40:14.658Z,4.18
2022-11-25T17:50:37.310Z,4.45
2022-11-25T18:00:58.900Z,4.53
2022-11-25T18:11:22.821Z,4.35
2022-11-25T18:21:44.385Z,4.50
2022-11-25T18:32:05.881Z,4.30
2022-11-25T18:42:27.787Z,4.97
2022-11-25T19:03:17.893Z,5.83
2022-11-25T19:13:39.441Z,5.88
2022-11-25T19:24:00.910Z,6.03
2022-11-25T19:34:45.835Z,6.07
2022-11-25T19:45:08.188Z,5.10
2022-11-25T19:55:30.001Z,5.45
2022-11-25T20:05:54.399Z,5.70
2022-11-25T20:16:25.413Z,6.10
2022-11-25T20:26:48.860Z,6.40
2022-11-25T20:37:13.668Z,5.85
2022-11-25T20:47:39.614Z,6.38
2022-11-25T20:58:20.146Z,7.05
2022-11-25T21:08:45.277Z,7.05
2022-11-25T21:19:06.807Z,7.50
2022-11-25T21:29:29.843Z,7.57
2022-11-25T21:39:51.346Z,7.60
2022-11-25T21:50:20.295Z,6.37
2022-11-25T22:00:41.768Z,7.15
2022-11-25T22:11:03.461Z,7.13
2022-11-25T22:21:25.148Z,6.65
2022-11-25T22:31:48.285Z,7.20
2022-11-25T22:42:29.649Z,7.07
2022-11-25T22:52:53.081Z,6.93
2022-11-25T23:03:21.184Z,6.88
2022-11-25T23:13:42.711Z,6.80
2022-11-25T23:24:11.803Z,6.57
2022-11-25T23:34:34.682Z,6.32
2022-11-25T23:44:56.194Z,6.20
2022-11-25T23:55:23.691Z,6.23
